Terminal Aerodrome Forecast
Issued by NWS Cleveland, OH

Home | Current Version | Previous Version | Graphics & Text | Print | Product List | Glossary On
Versions: 1 2 3 4 5 6 7 8 9 10 11 12 13 14 15 16 17 18 19 20
101
FTUS41 KCLE 012342
TAFYNG
TAF
KYNG 012342Z 0200/0224 36010KT P6SM SCT008 OVC012
     FM020300 04006KT 5SM BR OVC008
     FM020600 08006KT 3SM -SHRA BR OVC008
     FM021200 34006KT 2SM BR OVC004
     FM021600 34010KT 4SM BR OVC008
     FM022100 36006KT P6SM OVC012=

USA.gov is the U.S. government's official web portal to all federal, state and local government web resources and services.